Detall de PIREP

Printer-friendly versionPDF version

[2014/09/30 10:58:00]
Flight IATA:CT3234
Pilot Number:012
Company ICAO:CAT
Aircraft Type:B763/F
PAX:263
Departing Airport: LEPA
Destination Airport: LFPG
Alternate Airport:EBBR
Online: VATSIM
Route:GALAT UN861 FISTO UY156 ADABI UN858 VANAD A34 KOVAK
Flight Level:F380
No Slew and time accel
No pause
Crash detect
Detect pilot in Cockpit between each 30 and 45 minutes
10:58 Zero fuel Weight: 248944 Lbs, Fuel Weight: 32237 Lbs
10:58 VATSIM:LEPA 301030Z 20008KT 170V240 9999 FEW018 FEW025TCU 25/21 Q1023 NOSIG
10:58 VATSIM:LFPG 301030Z VRB03KT 6000 SCT011 20/16 Q1026 NOSIG
10:58 BARCELONA FC CHAMPIONS CUP
10:59 Parking Brakes off
11:03 Take-off
11:03 Take off Weight: 279971 Lbs
11:03 Wind: 206º @ 008 Knots Heading: 236º
11:03 POS N39º 33´ 23´´ E002º 43´ 50´´
11:03 Gear Up: 165 Knots
11:03 Flaps:2 at 166 Knots
11:04 Flaps:1 at 187 Knots
11:04 Flaps:0 at 200 Knots
11:18 Wind:228º@032 Knots Heading: 344º Ground Speed: 486 Knots Altitude 38087 ft
11:18 TOC
11:18 Fuel Weight: 25032 Lb
11:33 Wind:216º@026 Knots Heading: 352º Ground Speed: 485 Knots Altitude 38366 ft
11:48 Wind:227º@019 Knots Heading: 342º Ground Speed: 473 Knots Altitude 38369 ft
12:03 Wind:251º@019 Knots Heading: 007º Ground Speed: 477 Knots Altitude 38382 ft
12:13 TOD
12:13 Fuel Weight: 16523 Lb
12:18 Wind:252º@018 Knots Heading: 042º Ground Speed: 470 Knots Altitude 24238 ft
12:27 Flaps:1 at 243 Knots
12:27 Flaps:2 at 222 Knots
12:27 Flaps:3 at 203 Knots
12:27 Flaps:4 at 187 Knots
12:28 Gear Down: 172 Knots
12:28 Flaps:5 at 139 Knots
12:30 Flaps:6 at 142 Knots
12:32 TouchDown:Rate -176 ft/min Speed: 120 Knots
12:32 Flaps:5 at 53 Knots
12:32 VATSIM:LFPG 301200Z VRB03KT 9999 SCT024 21/15 Q1026 NOSIG
12:32 Land
12:32 Wind:323º@003 Knots
12:32 Heading: 286º
12:32 Flight Duration: 01:29
12:32 Landing Weight: 263266 Lbs
12:32 POS N48º 59´ 50´´ E002º 34´ 56´´
12:32 Parking brakes on
12:32 Block to Block Duration: 01:33
12:32 Final Fuel: 14294 Lbls
12:32 Spent Fuel: 17943 Lbls
12:32 Flight Length: 651 NM
12:32 TOD Land Length: 110 NM

Exportar CSV

Powered by Drupal - Modified by Danger4k